createdAt,value
2022-10-05T00:00:20.588Z,1000.12
2022-10-05T00:01:20.662Z,1000.07
2022-10-05T00:02:20.561Z,1000.13
2022-10-05T00:03:20.550Z,1000.12
2022-10-05T00:04:20.538Z,1000.12
2022-10-05T00:06:20.510Z,1000.07
2022-10-05T00:07:20.499Z,1000.07
2022-10-05T00:08:20.506Z,1000.02
2022-10-05T00:09:20.473Z,1000.03
2022-10-05T00:10:20.457Z,1000.03
2022-10-05T00:11:20.446Z,1000.01
2022-10-05T00:12:20.433Z,999.94
2022-10-05T00:13:20.420Z,999.95
2022-10-05T00:14:20.406Z,999.93
2022-10-05T00:15:20.394Z,999.92
2022-10-05T00:17:20.368Z,999.94
2022-10-05T00:18:20.353Z,999.99
2022-10-05T00:19:20.342Z,999.96
2022-10-05T00:20:20.329Z,999.99
2022-10-05T00:21:20.316Z,999.97
2022-10-05T00:22:20.305Z,999.94
2022-10-05T00:23:20.290Z,1000.00
2022-10-05T00:24:20.299Z,1000.00
2022-10-05T00:25:20.275Z,999.99
2022-10-05T00:26:20.250Z,999.98
2022-10-05T00:28:20.286Z,999.93
2022-10-05T00:29:20.213Z,999.92
2022-10-05T00:30:20.200Z,999.93
2022-10-05T00:31:20.245Z,999.97
2022-10-05T00:32:20.172Z,999.90
2022-10-05T00:33:20.159Z,999.91
2022-10-05T00:34:20.149Z,999.96
2022-10-05T00:35:20.134Z,999.95
2022-10-05T00:36:20.119Z,999.88
2022-10-05T00:37:20.107Z,999.92
2022-10-05T00:39:20.083Z,999.92
2022-10-05T00:40:20.204Z,999.92
2022-10-05T00:41:20.056Z,999.88
2022-10-05T00:42:20.041Z,999.90
2022-10-05T00:43:20.042Z,999.96
2022-10-05T00:44:20.022Z,999.94
2022-10-05T00:45:20.004Z,999.92
2022-10-05T00:46:20.046Z,999.95
2022-10-05T00:47:19.977Z,999.91
2022-10-05T00:48:19.965Z,999.93
2022-10-05T00:50:19.939Z,999.95
2022-10-05T00:51:19.926Z,1000.01
2022-10-05T00:52:19.911Z,999.98
2022-10-05T00:53:19.907Z,1000.03
2022-10-05T00:54:19.885Z,1000.00
2022-10-05T00:55:19.875Z,1000.06
2022-10-05T00:56:19.889Z,1000.00
2022-10-05T00:57:19.847Z,1000.04
2022-10-05T00:58:19.833Z,1000.09
2022-10-05T00:59:19.822Z,1000.09
2022-10-05T01:01:19.867Z,1000.10
2022-10-05T01:02:19.879Z,1000.10
2022-10-05T01:03:19.776Z,1000.09
2022-10-05T01:04:19.753Z,1000.00
2022-10-05T01:05:19.742Z,999.96
2022-10-05T01:06:19.728Z,1000.01
2022-10-05T01:07:19.717Z,1000.05
2022-10-05T01:08:19.702Z,1000.00
2022-10-05T01:09:19.690Z,999.97
2022-10-05T01:10:19.675Z,999.98
2022-10-05T01:12:19.674Z,999.95
2022-10-05T01:13:19.636Z,999.95
2022-10-05T01:14:19.624Z,999.92
2022-10-05T01:15:19.611Z,999.94
2022-10-05T01:16:19.654Z,999.85
2022-10-05T01:17:19.585Z,999.88
2022-10-05T01:18:19.572Z,999.81
2022-10-05T01:19:19.559Z,999.79
2022-10-05T01:20:19.546Z,999.78
2022-10-05T01:21:19.532Z,999.79
2022-10-05T01:23:19.505Z,999.81
2022-10-05T01:24:19.494Z,999.82
2022-10-05T01:25:19.480Z,999.76
2022-10-05T01:26:19.467Z,999.72
2022-10-05T01:27:19.454Z,999.68
2022-10-05T01:28:19.539Z,999.65
2022-10-05T01:29:19.426Z,999.63
2022-10-05T01:30:19.416Z,999.57
2022-10-05T01:31:19.545Z,999.58
2022-10-05T01:32:19.389Z,999.54
2022-10-05T01:34:19.367Z,999.51
2022-10-05T01:35:19.347Z,999.53
2022-10-05T01:36:19.337Z,999.44
2022-10-05T01:37:19.321Z,999.40
2022-10-05T01:38:19.313Z,999.40
2022-10-05T01:39:19.297Z,999.36
2022-10-05T01:40:19.288Z,999.37
2022-10-05T01:41:19.270Z,999.29
2022-10-05T01:42:19.258Z,999.31
2022-10-05T01:43:19.244Z,999.32
2022-10-05T01:45:19.218Z,999.28
2022-10-05T01:46:19.276Z,999.27
2022-10-05T01:47:19.191Z,999.29
2022-10-05T01:48:19.180Z,999.32
2022-10-05T01:49:19.166Z,999.28
2022-10-05T01:50:19.154Z,999.31
2022-10-05T01:51:19.139Z,999.26
2022-10-05T01:52:19.127Z,999.29
2022-10-05T01:53:19.115Z,999.25
2022-10-05T01:54:19.101Z,999.21
2022-10-05T01:56:19.076Z,999.25
2022-10-05T01:57:19.064Z,999.24
2022-10-05T01:58:19.050Z,999.19
2022-10-05T01:59:19.041Z,999.15
2022-10-05T02:00:19.052Z,999.09
2022-10-05T02:01:19.132Z,999.04
2022-10-05T02:02:19.104Z,999.08
2022-10-05T02:03:18.984Z,999.02
2022-10-05T02:04:37.253Z,998.93
2022-10-05T02:05:18.958Z,998.94
2022-10-05T02:07:18.932Z,998.94
2022-10-05T02:09:18.906Z,998.99
2022-10-05T02:10:18.896Z,998.99
2022-10-05T02:11:18.879Z,999.06
2022-10-05T02:12:18.868Z,999.09
2022-10-05T02:13:18.855Z,999.07
2022-10-05T02:14:18.842Z,999.13
2022-10-05T02:15:18.827Z,999.13
2022-10-05T02:16:18.909Z,999.17
2022-10-05T02:18:18.789Z,999.15
2022-10-05T02:19:18.775Z,999.15
2022-10-05T02:20:18.763Z,999.16
2022-10-05T02:21:18.753Z,999.21
2022-10-05T02:22:18.737Z,999.21
2022-10-05T02:23:18.724Z,999.24
2022-10-05T02:24:18.711Z,999.22
2022-10-05T02:25:18.697Z,999.21
2022-10-05T02:26:18.686Z,999.23
2022-10-05T02:27:18.671Z,999.19
2022-10-05T02:29:18.645Z,999.23
2022-10-05T02:30:18.634Z,999.22
2022-10-05T02:31:18.678Z,999.17
2022-10-05T02:32:18.631Z,999.21
2022-10-05T02:33:18.594Z,999.22
2022-10-05T02:34:18.582Z,999.24
2022-10-05T02:35:18.569Z,999.25
2022-10-05T02:36:18.559Z,999.25
2022-10-05T02:37:18.540Z,999.24
2022-10-05T02:38:18.528Z,999.26
2022-10-05T02:40:18.502Z,999.30
2022-10-05T02:41:18.488Z,999.35
2022-10-05T02:42:18.476Z,999.34
2022-10-05T02:43:18.462Z,999.34
2022-10-05T02:44:18.449Z,999.38
2022-10-05T02:45:18.436Z,999.34
2022-10-05T02:46:18.503Z,999.37
2022-10-05T02:47:18.410Z,999.38
2022-10-05T02:48:18.421Z,999.40
2022-10-05T02:49:18.385Z,999.45
2022-10-05T02:51:18.357Z,999.54
2022-10-05T02:52:18.345Z,999.57
2022-10-05T02:53:18.338Z,999.54
2022-10-05T02:54:18.320Z,999.57
2022-10-05T02:55:18.305Z,999.55
2022-10-05T02:56:18.295Z,999.46
2022-10-05T02:57:18.280Z,999.53
2022-10-05T02:58:18.267Z,999.49
2022-10-05T02:59:18.256Z,999.50
2022-10-05T03:00:18.242Z,999.44
2022-10-05T03:02:18.257Z,999.38
2022-10-05T03:03:18.201Z,999.45
2022-10-05T03:04:18.212Z,999.40
2022-10-05T03:05:18.174Z,999.39
2022-10-05T03:06:18.164Z,999.36
2022-10-05T03:07:18.147Z,999.33
2022-10-05T03:08:18.137Z,999.34
2022-10-05T03:09:18.122Z,999.38
2022-10-05T03:10:18.110Z,999.34
2022-10-05T03:11:18.107Z,999.41
2022-10-05T03:13:18.069Z,999.42
2022-10-05T03:14:18.057Z,999.52
2022-10-05T03:15:18.059Z,999.45
2022-10-05T03:16:18.122Z,999.45
2022-10-05T03:17:18.022Z,999.46
2022-10-05T03:18:18.015Z,999.46
2022-10-05T03:19:17.990Z,999.37
2022-10-05T03:20:18.002Z,999.42
2022-10-05T03:21:17.963Z,999.39
2022-10-05T03:22:17.953Z,999.42
2022-10-05T03:24:17.926Z,999.44
2022-10-05T03:25:17.911Z,999.43
2022-10-05T03:26:17.900Z,999.39
2022-10-05T03:27:17.888Z,999.37
2022-10-05T03:28:17.960Z,999.35
2022-10-05T03:29:17.860Z,999.32
2022-10-05T03:30:17.849Z,999.32
2022-10-05T03:31:17.948Z,999.33
2022-10-05T03:32:17.821Z,999.24
2022-10-05T03:33:17.807Z,999.19
2022-10-05T03:35:17.783Z,999.18
2022-10-05T03:36:17.905Z,999.13
2022-10-05T03:37:17.757Z,999.18
2022-10-05T03:38:17.743Z,999.24
2022-10-05T03:39:17.729Z,999.24
2022-10-05T03:40:17.717Z,999.17
2022-10-05T03:41:17.705Z,999.19
2022-10-05T03:42:17.693Z,999.28
2022-10-05T03:43:17.678Z,999.23
2022-10-05T03:44:17.666Z,999.19
2022-10-05T03:46:17.726Z,999.26
2022-10-05T03:47:17.624Z,999.25
2022-10-05T03:48:17.613Z,999.28
2022-10-05T03:49:17.599Z,999.26
2022-10-05T03:50:17.592Z,999.35
2022-10-05T03:51:17.572Z,999.34
2022-10-05T03:52:17.582Z,999.34
2022-10-05T03:53:17.546Z,999.28
2022-10-05T03:54:17.534Z,999.35
2022-10-05T03:55:17.520Z,999.34
2022-10-05T03:57:17.493Z,999.37
2022-10-05T03:58:17.481Z,999.27
2022-10-05T03:59:17.467Z,999.40
2022-10-05T04:00:17.470Z,999.39
2022-10-05T04:01:17.473Z,999.46
2022-10-05T04:02:17.498Z,999.43
2022-10-05T04:03:17.416Z,999.47
2022-10-05T04:04:17.403Z,999.49
2022-10-05T04:05:17.390Z,999.49
2022-10-05T04:06:17.378Z,999.45
2022-10-05T04:08:17.373Z,999.51
2022-10-05T04:09:17.339Z,999.54
2022-10-05T04:10:17.324Z,999.51
2022-10-05T04:11:17.311Z,999.53
2022-10-05T04:12:17.298Z,999.48
2022-10-05T04:13:17.283Z,999.36
2022-10-05T04:14:17.272Z,999.36
2022-10-05T04:15:19.056Z,999.41
2022-10-05T04:16:17.323Z,999.31
2022-10-05T04:17:17.231Z,999.35
2022-10-05T04:19:17.206Z,999.39
2022-10-05T04:20:17.194Z,999.42
2022-10-05T04:21:20.171Z,999.39
2022-10-05T04:22:19.168Z,999.35
2022-10-05T04:23:17.153Z,999.40
2022-10-05T04:24:17.163Z,999.36
2022-10-05T04:25:17.126Z,999.31
2022-10-05T04:26:17.114Z,999.30
2022-10-05T04:27:17.101Z,999.27
2022-10-05T04:28:17.143Z,999.26
2022-10-05T04:30:17.067Z,999.17
2022-10-05T04:31:17.094Z,999.20
2022-10-05T04:32:17.038Z,999.20
2022-10-05T04:33:17.021Z,999.23
2022-10-05T04:34:17.009Z,999.23
2022-10-05T04:35:16.997Z,999.26
2022-10-05T04:36:16.985Z,999.31
2022-10-05T04:37:16.971Z,999.40
2022-10-05T04:38:16.959Z,999.33
2022-10-05T04:39:16.949Z,999.35
2022-10-05T04:41:16.917Z,999.23
2022-10-05T04:42:16.906Z,999.23
2022-10-05T04:43:16.891Z,999.32
2022-10-05T04:44:16.878Z,999.36
2022-10-05T04:45:16.865Z,999.37
2022-10-05T04:46:16.970Z,999.41
2022-10-05T04:47:16.839Z,999.39
2022-10-05T04:48:16.833Z,999.38
2022-10-05T04:49:16.812Z,999.37
2022-10-05T04:50:16.800Z,999.38
2022-10-05T04:52:16.775Z,999.33
2022-10-05T04:53:16.773Z,999.35
2022-10-05T04:54:16.749Z,999.36
2022-10-05T04:55:16.738Z,999.34
2022-10-05T04:56:16.746Z,999.36
2022-10-05T04:57:16.709Z,999.37
2022-10-05T04:58:16.696Z,999.34
2022-10-05T04:59:16.682Z,999.40
2022-10-05T05:00:16.674Z,999.42
2022-10-05T05:01:16.746Z,999.41
2022-10-05T05:03:16.629Z,999.36
2022-10-05T05:04:16.655Z,999.38
2022-10-05T05:05:16.603Z,999.44
2022-10-05T05:06:18.069Z,999.43
2022-10-05T05:07:16.577Z,999.38
2022-10-05T05:08:16.566Z,999.43
2022-10-05T05:09:16.569Z,999.37
2022-10-05T05:10:16.542Z,999.39
2022-10-05T05:11:19.994Z,999.40
2022-10-05T05:12:16.556Z,999.40
2022-10-05T05:14:16.489Z,999.43
2022-10-05T05:15:16.471Z,999.45
2022-10-05T05:16:16.577Z,999.45
2022-10-05T05:17:16.447Z,999.46
2022-10-05T05:18:16.440Z,999.41
2022-10-05T05:19:16.419Z,999.46
2022-10-05T05:20:16.408Z,999.47
2022-10-05T05:21:16.395Z,999.39
2022-10-05T05:22:16.382Z,999.46
2022-10-05T05:23:16.367Z,999.42
2022-10-05T05:25:16.343Z,999.42
2022-10-05T05:26:16.334Z,999.36
2022-10-05T05:27:16.317Z,999.35
2022-10-05T05:28:16.423Z,999.40
2022-10-05T05:29:16.292Z,999.35
2022-10-05T05:30:16.278Z,999.34
2022-10-05T05:31:16.368Z,999.38
2022-10-05T05:32:16.254Z,999.38
2022-10-05T05:33:16.241Z,999.46
2022-10-05T05:34:16.232Z,999.39
2022-10-05T05:36:20.727Z,999.31
2022-10-05T05:37:16.190Z,999.29
2022-10-05T05:38:16.187Z,999.33
2022-10-05T05:39:16.176Z,999.31
2022-10-05T05:40:16.156Z,999.30
2022-10-05T05:41:16.140Z,999.28
2022-10-05T05:42:16.126Z,999.30
2022-10-05T05:43:16.116Z,999.29
2022-10-05T05:44:16.125Z,999.33
2022-10-05T05:45:16.089Z,999.39
2022-10-05T05:47:16.232Z,999.49
2022-10-05T05:48:16.051Z,999.47
2022-10-05T05:49:16.037Z,999.53
2022-10-05T05:50:16.029Z,999.53
2022-10-05T05:51:16.013Z,999.47
2022-10-05T05:52:15.998Z,999.50
2022-10-05T05:53:15.987Z,999.48
2022-10-05T05:54:15.973Z,999.47
2022-10-05T05:55:15.962Z,999.49
2022-10-05T05:56:15.947Z,999.46
2022-10-05T05:58:15.945Z,999.43
2022-10-05T05:59:15.913Z,999.43
2022-10-05T06:00:15.946Z,999.40
2022-10-05T06:01:31.689Z,999.43
2022-10-05T06:02:15.960Z,999.41
2022-10-05T06:03:16.063Z,999.41
2022-10-05T06:04:15.845Z,999.37
2022-10-05T06:05:15.834Z,999.35
2022-10-05T06:06:15.823Z,999.30
2022-10-05T06:07:15.810Z,999.32
2022-10-05T06:09:15.785Z,999.19
2022-10-05T06:10:15.769Z,999.21
2022-10-05T06:11:15.758Z,999.19
2022-10-05T06:12:15.743Z,999.22
2022-10-05T06:13:15.732Z,999.16
2022-10-05T06:14:15.719Z,999.23
2022-10-05T06:15:15.707Z,999.23
2022-10-05T06:16:15.761Z,999.24
2022-10-05T06:17:15.682Z,999.30
2022-10-05T06:18:15.668Z,999.34
2022-10-05T06:20:15.648Z,999.33
2022-10-05T06:21:15.630Z,999.30
2022-10-05T06:22:15.616Z,999.40
2022-10-05T06:23:15.605Z,999.32
2022-10-05T06:24:15.590Z,999.37
2022-10-05T06:25:15.580Z,999.38
2022-10-05T06:26:15.565Z,999.46
2022-10-05T06:27:15.557Z,999.37
2022-10-05T06:28:15.587Z,999.36
2022-10-05T06:29:15.527Z,999.38
2022-10-05T06:31:15.528Z,999.41
2022-10-05T06:32:15.506Z,999.38
2022-10-05T06:33:15.472Z,999.37
2022-10-05T06:34:15.456Z,999.42
2022-10-05T06:35:15.451Z,999.36
2022-10-05T06:36:15.429Z,999.39
2022-10-05T06:37:15.418Z,999.40
2022-10-05T06:38:15.411Z,999.41
2022-10-05T06:39:15.390Z,999.37
2022-10-05T06:40:15.377Z,999.34
2022-10-05T06:42:15.347Z,999.38
2022-10-05T06:43:15.336Z,999.37
2022-10-05T06:44:15.325Z,999.34
2022-10-05T06:45:15.309Z,999.32
2022-10-05T06:46:15.383Z,999.32
2022-10-05T06:47:15.283Z,999.28
2022-10-05T06:48:15.291Z,999.30
2022-10-05T06:49:15.262Z,999.31
2022-10-05T06:50:15.241Z,999.31
2022-10-05T06:51:15.232Z,999.30
2022-10-05T06:53:15.204Z,999.33
2022-10-05T06:54:15.188Z,999.32
2022-10-05T06:55:15.186Z,999.29
2022-10-05T06:56:15.166Z,999.38
2022-10-05T06:57:15.150Z,999.34
2022-10-05T06:58:15.135Z,999.46
2022-10-05T06:59:15.124Z,999.34
2022-10-05T07:00:15.110Z,999.40
2022-10-05T07:01:15.209Z,999.30
2022-10-05T07:02:15.126Z,999.31
2022-10-05T07:04:15.094Z,999.28
2022-10-05T07:05:15.044Z,999.27
2022-10-05T07:06:15.031Z,999.25
2022-10-05T07:07:15.020Z,999.23
2022-10-05T07:08:15.005Z,999.26
2022-10-05T07:09:14.994Z,999.22
2022-10-05T07:10:14.979Z,999.20
2022-10-05T07:11:14.967Z,999.23
2022-10-05T07:12:14.952Z,999.21
2022-10-05T07:13:14.940Z,999.17
2022-10-05T07:15:14.917Z,999.21
2022-10-05T07:16:14.976Z,999.20
2022-10-05T07:17:14.888Z,999.25
2022-10-05T07:18:14.873Z,999.20
2022-10-05T07:19:14.863Z,999.17
2022-10-05T07:20:14.871Z,999.24
2022-10-05T07:21:14.845Z,999.27
2022-10-05T07:22:14.821Z,999.12
2022-10-05T07:23:14.810Z,999.15
2022-10-05T07:24:14.795Z,999.18
2022-10-05T07:26:14.768Z,999.17
2022-10-05T07:27:14.756Z,999.15
2022-10-05T07:28:14.815Z,999.11
2022-10-05T07:29:14.729Z,999.10
2022-10-05T07:30:14.718Z,999.08
2022-10-05T07:31:14.802Z,999.12
2022-10-05T07:32:14.691Z,999.03
2022-10-05T07:33:14.680Z,999.03
2022-10-05T07:34:14.664Z,998.97
2022-10-05T07:35:14.653Z,999.01
2022-10-05T07:37:14.631Z,999.01
2022-10-05T07:38:14.620Z,999.04
2022-10-05T07:39:14.602Z,999.03
2022-10-05T07:40:14.584Z,999.01
2022-10-05T07:41:14.574Z,998.99
2022-10-05T07:42:14.561Z,999.02
2022-10-05T07:43:14.558Z,999.08
2022-10-05T07:44:14.531Z,998.95
2022-10-05T07:45:14.520Z,999.09
2022-10-05T07:46:14.585Z,998.98
2022-10-05T07:48:14.483Z,999.02
2022-10-05T07:49:14.469Z,999.00
2022-10-05T07:50:14.456Z,999.01
2022-10-05T07:51:14.440Z,998.99
2022-10-05T07:52:14.494Z,998.96
2022-10-05T07:53:14.416Z,998.98
2022-10-05T07:54:14.401Z,998.96
2022-10-05T07:55:14.391Z,998.91
2022-10-05T07:56:14.373Z,998.88
2022-10-05T07:57:14.367Z,998.74
2022-10-05T07:59:14.337Z,998.90
2022-10-05T08:00:14.520Z,998.95
2022-10-05T08:01:14.310Z,998.93
2022-10-05T08:02:14.491Z,998.97
2022-10-05T08:03:14.351Z,998.98
2022-10-05T08:04:14.269Z,999.00
2022-10-05T08:05:14.260Z,998.83
2022-10-05T08:06:14.246Z,998.90
2022-10-05T08:07:14.295Z,998.90
2022-10-05T08:08:16.746Z,999.01
2022-10-05T08:10:14.251Z,998.84
2022-10-05T08:11:14.181Z,998.75
2022-10-05T08:12:14.169Z,998.76
2022-10-05T08:13:14.158Z,998.74
2022-10-05T08:14:14.141Z,998.69
2022-10-05T08:15:14.130Z,998.69
2022-10-05T08:16:14.137Z,998.68
2022-10-05T08:17:14.102Z,998.72
2022-10-05T08:18:14.086Z,998.66
2022-10-05T08:19:14.076Z,998.75
2022-10-05T08:21:14.053Z,998.68
2022-10-05T08:22:14.042Z,998.69
2022-10-05T08:23:14.027Z,998.67
2022-10-05T08:24:14.039Z,998.66
2022-10-05T08:25:14.000Z,998.78
2022-10-05T08:26:13.986Z,998.69
2022-10-05T08:27:13.975Z,998.75
2022-10-05T08:28:13.988Z,998.72
2022-10-05T08:29:14.191Z,998.71
2022-10-05T08:30:14.081Z,998.75
2022-10-05T08:32:13.909Z,998.68
2022-10-05T08:33:13.897Z,998.64
2022-10-05T08:34:13.881Z,998.59
2022-10-05T08:35:13.870Z,998.68
2022-10-05T08:36:13.856Z,998.63
2022-10-05T08:37:13.845Z,998.70
2022-10-05T08:38:13.830Z,998.68
2022-10-05T08:39:13.818Z,998.69
2022-10-05T08:40:13.825Z,998.76
2022-10-05T08:41:13.790Z,998.69
2022-10-05T08:43:13.766Z,998.68
2022-10-05T08:44:13.751Z,998.75
2022-10-05T08:45:13.738Z,998.75
2022-10-05T08:46:13.826Z,998.82
2022-10-05T08:47:13.714Z,998.75
2022-10-05T08:48:13.700Z,998.79
2022-10-05T08:49:13.687Z,998.73
2022-10-05T08:50:13.674Z,998.71
2022-10-05T08:51:13.666Z,998.77
2022-10-05T08:52:13.648Z,998.79
2022-10-05T08:54:13.620Z,998.74
2022-10-05T08:55:13.609Z,998.75
2022-10-05T08:56:19.085Z,998.74
2022-10-05T08:57:15.581Z,998.80
2022-10-05T08:58:13.569Z,998.77
2022-10-05T08:59:13.557Z,998.80
2022-10-05T09:00:13.549Z,998.80
2022-10-05T09:01:13.620Z,998.73
2022-10-05T09:02:13.577Z,998.80
2022-10-05T09:03:13.504Z,998.76
2022-10-05T09:05:13.478Z,998.68
2022-10-05T09:06:13.463Z,998.73
2022-10-05T09:07:13.452Z,998.70
2022-10-05T09:08:13.437Z,998.66
2022-10-05T09:09:13.425Z,998.66
2022-10-05T09:10:13.413Z,998.75
2022-10-05T09:11:13.400Z,998.70
2022-10-05T09:12:13.409Z,998.69
2022-10-05T09:13:13.373Z,998.63
2022-10-05T09:14:13.359Z,998.58
2022-10-05T09:16:13.402Z,998.68
2022-10-05T09:17:13.321Z,998.68
2022-10-05T09:18:13.305Z,998.65
2022-10-05T09:19:13.294Z,998.57
2022-10-05T09:20:13.279Z,998.61
2022-10-05T09:21:13.269Z,998.59
2022-10-05T09:22:13.292Z,998.59
2022-10-05T09:23:13.244Z,998.59
2022-10-05T09:24:13.227Z,998.57
2022-10-05T09:25:13.219Z,998.67
2022-10-05T09:27:13.190Z,998.55
2022-10-05T09:28:13.329Z,998.63
2022-10-05T09:29:13.165Z,998.63
2022-10-05T09:30:13.155Z,998.59
2022-10-05T09:31:13.194Z,998.67
2022-10-05T09:32:16.496Z,998.51
2022-10-05T09:33:13.113Z,998.57
2022-10-05T09:34:13.098Z,998.51
2022-10-05T09:35:13.090Z,998.50
2022-10-05T09:36:13.071Z,998.48
2022-10-05T09:38:13.046Z,998.45
2022-10-05T09:39:13.034Z,998.51
2022-10-05T09:40:13.020Z,998.47
2022-10-05T09:41:13.007Z,998.43
2022-10-05T09:42:12.992Z,998.47
2022-10-05T09:43:12.979Z,998.44
2022-10-05T09:44:12.989Z,998.48
2022-10-05T09:45:15.545Z,998.44
2022-10-05T09:46:13.012Z,998.39
2022-10-05T09:47:12.931Z,998.38
2022-10-05T09:49:12.902Z,998.35
2022-10-05T09:50:12.895Z,998.53
2022-10-05T09:51:12.875Z,998.51
2022-10-05T09:52:17.962Z,998.54
2022-10-05T09:53:12.851Z,998.30
2022-10-05T09:54:12.841Z,998.67
2022-10-05T09:55:12.826Z,998.60
2022-10-05T09:56:12.814Z,998.55
2022-10-05T09:57:12.799Z,998.56
2022-10-05T09:58:12.797Z,998.49
2022-10-05T10:00:12.797Z,998.39
2022-10-05T10:01:29.007Z,998.28
2022-10-05T10:02:14.901Z,998.46
2022-10-05T10:03:12.833Z,998.40
2022-10-05T10:04:12.716Z,998.16
2022-10-05T10:05:12.707Z,998.39
2022-10-05T10:06:12.698Z,998.41
2022-10-05T10:07:12.683Z,998.37
2022-10-05T10:08:12.678Z,998.05
2022-10-05T10:09:12.657Z,998.37
2022-10-05T10:11:12.636Z,998.28
2022-10-05T10:12:12.629Z,998.26
2022-10-05T10:13:12.614Z,998.24
2022-10-05T10:14:12.605Z,998.22
2022-10-05T10:15:12.591Z,998.24
2022-10-05T10:16:12.698Z,998.24
2022-10-05T10:17:12.573Z,998.21
2022-10-05T10:18:12.568Z,998.24
2022-10-05T10:19:12.577Z,998.20
2022-10-05T10:20:12.538Z,998.27
2022-10-05T10:22:12.515Z,998.17
2022-10-05T10:23:12.500Z,998.14
2022-10-05T10:24:12.490Z,998.19
2022-10-05T10:25:12.474Z,998.19
2022-10-05T10:26:12.468Z,998.15
2022-10-05T10:27:12.451Z,998.17
2022-10-05T10:28:12.487Z,998.11
2022-10-05T10:29:12.427Z,998.06
2022-10-05T10:30:12.418Z,998.08
2022-10-05T10:31:12.436Z,997.88
2022-10-05T10:33:12.383Z,998.18
2022-10-05T10:34:12.370Z,998.19
2022-10-05T10:35:12.359Z,998.14
2022-10-05T10:36:12.348Z,998.18
2022-10-05T10:37:12.335Z,998.10
2022-10-05T10:38:12.324Z,998.16
2022-10-05T10:39:12.311Z,998.16
2022-10-05T10:40:12.326Z,998.12
2022-10-05T10:41:12.294Z,998.12
2022-10-05T10:42:12.278Z,998.14
2022-10-05T10:44:12.254Z,998.08
2022-10-05T10:45:12.240Z,998.17
2022-10-05T10:46:12.316Z,998.15
2022-10-05T10:47:12.218Z,998.14
2022-10-05T10:48:12.235Z,998.14
2022-10-05T10:49:12.195Z,998.10
2022-10-05T10:50:12.187Z,998.10
2022-10-05T10:51:12.172Z,997.99
2022-10-05T10:52:12.166Z,998.16
2022-10-05T10:53:12.149Z,998.05
2022-10-05T10:55:12.127Z,997.99
2022-10-05T10:56:12.116Z,998.05
2022-10-05T10:57:12.105Z,998.02
2022-10-05T10:58:15.918Z,997.95
2022-10-05T10:59:12.081Z,997.95
2022-10-05T11:00:12.078Z,998.02
2022-10-05T11:01:12.059Z,997.66
2022-10-05T11:02:12.097Z,997.99
2022-10-05T11:03:12.126Z,997.94
2022-10-05T11:04:12.078Z,997.96
2022-10-05T11:06:12.009Z,997.85
2022-10-05T11:07:12.000Z,997.84
2022-10-05T11:08:11.984Z,997.82
2022-10-05T11:09:11.973Z,997.88
2022-10-05T11:10:11.962Z,997.81
2022-10-05T11:11:11.949Z,997.90
2022-10-05T11:12:11.935Z,997.76
2022-10-05T11:13:11.923Z,997.73
2022-10-05T11:14:11.912Z,997.76
2022-10-05T11:15:11.900Z,997.77
2022-10-05T11:17:11.876Z,997.70
2022-10-05T11:18:11.863Z,997.72
2022-10-05T11:19:11.852Z,997.69
2022-10-05T11:20:11.865Z,997.68
2022-10-05T11:21:11.829Z,997.61
2022-10-05T11:22:11.819Z,997.71
2022-10-05T11:23:11.806Z,997.67
2022-10-05T11:24:11.796Z,997.62
2022-10-05T11:25:11.782Z,997.54
2022-10-05T11:26:11.779Z,997.66
2022-10-05T11:28:11.825Z,997.66
2022-10-05T11:29:11.761Z,997.67
2022-10-05T11:30:11.731Z,997.69
2022-10-05T11:31:11.766Z,997.62
2022-10-05T11:32:11.706Z,997.55
2022-10-05T11:33:11.696Z,997.61
2022-10-05T11:34:11.685Z,997.61
2022-10-05T11:35:11.674Z,997.56
2022-10-05T11:36:11.688Z,997.52
2022-10-05T11:37:11.649Z,997.52
2022-10-05T11:39:11.627Z,997.55
2022-10-05T11:40:11.618Z,997.58
2022-10-05T11:41:11.604Z,997.58
2022-10-05T11:42:11.595Z,997.38
2022-10-05T11:43:11.583Z,997.34
2022-10-05T11:44:11.570Z,997.38
2022-10-05T11:45:11.558Z,997.45
2022-10-05T11:46:11.603Z,997.55
2022-10-05T11:47:11.535Z,997.40
2022-10-05T11:48:11.523Z,997.32
2022-10-05T11:50:11.497Z,997.50
2022-10-05T11:51:11.485Z,997.27
2022-10-05T11:52:11.515Z,997.45
2022-10-05T11:53:11.460Z,997.32
2022-10-05T11:54:11.450Z,997.20
2022-10-05T11:55:12.364Z,997.25
2022-10-05T11:56:11.428Z,997.41
2022-10-05T11:57:11.411Z,997.24
2022-10-05T11:58:11.399Z,997.40
2022-10-05T11:59:11.398Z,997.37
2022-10-05T12:01:11.361Z,997.25
2022-10-05T12:02:11.352Z,997.17
2022-10-05T12:03:11.440Z,997.12
2022-10-05T12:04:11.488Z,997.12
2022-10-05T12:05:11.310Z,997.35
2022-10-05T12:06:11.300Z,997.20
2022-10-05T12:07:11.284Z,997.04
2022-10-05T12:08:11.341Z,997.07
2022-10-05T12:09:11.261Z,997.05
2022-10-05T12:10:11.256Z,997.06
2022-10-05T12:12:11.225Z,996.95
2022-10-05T12:13:11.210Z,997.14
2022-10-05T12:14:11.201Z,997.13
2022-10-05T12:15:11.186Z,996.95
2022-10-05T12:16:11.220Z,996.90
2022-10-05T12:17:11.161Z,996.86
2022-10-05T12:18:11.148Z,996.86
2022-10-05T12:19:11.134Z,996.99
2022-10-05T12:20:11.125Z,996.92
2022-10-05T12:21:11.110Z,996.92
2022-10-05T12:23:11.085Z,996.90
2022-10-05T12:24:11.113Z,996.98
2022-10-05T12:25:11.060Z,996.94
2022-10-05T12:26:11.049Z,996.99
2022-10-05T12:27:11.033Z,997.08
2022-10-05T12:28:11.090Z,996.99
2022-10-05T12:29:11.013Z,997.00
2022-10-05T12:30:10.996Z,996.94
2022-10-05T12:31:11.028Z,996.87
2022-10-05T12:32:10.973Z,996.97
2022-10-05T12:34:10.948Z,996.98
2022-10-05T12:35:10.936Z,996.94
2022-10-05T12:36:10.923Z,996.72
2022-10-05T12:37:10.913Z,996.75
2022-10-05T12:38:10.898Z,996.94
2022-10-05T12:39:10.884Z,996.83
2022-10-05T12:40:10.896Z,996.63
2022-10-05T12:41:10.861Z,996.79
2022-10-05T12:42:10.849Z,996.71
2022-10-05T12:43:10.834Z,996.72
2022-10-05T12:45:10.811Z,996.59
2022-10-05T12:46:10.834Z,996.53
2022-10-05T12:47:10.785Z,996.59
2022-10-05T12:48:10.774Z,996.77
2022-10-05T12:49:10.760Z,996.61
2022-10-05T12:50:10.748Z,996.64
2022-10-05T12:51:10.735Z,996.62
2022-10-05T12:52:10.729Z,996.69
2022-10-05T12:53:10.709Z,996.52
2022-10-05T12:54:10.702Z,996.73
2022-10-05T12:56:10.946Z,996.58
2022-10-05T12:57:10.660Z,996.64
2022-10-05T12:58:10.650Z,996.69
2022-10-05T12:59:10.636Z,996.68
2022-10-05T13:00:10.624Z,996.72
2022-10-05T13:01:10.655Z,996.69
2022-10-05T13:02:10.660Z,996.63
2022-10-05T13:03:10.585Z,996.65
2022-10-05T13:04:10.575Z,996.60
2022-10-05T13:05:10.561Z,996.71
2022-10-05T13:07:10.539Z,996.52
2022-10-05T13:08:10.525Z,996.49
2022-10-05T13:09:10.514Z,996.41
2022-10-05T13:10:10.500Z,996.49
2022-10-05T13:11:14.879Z,996.38
2022-10-05T13:12:10.542Z,996.55
2022-10-05T13:13:10.462Z,996.54
2022-10-05T13:14:10.450Z,996.53
2022-10-05T13:15:10.437Z,996.55
2022-10-05T13:16:11.102Z,996.47
2022-10-05T13:18:10.399Z,996.29
2022-10-05T13:19:10.387Z,996.47
2022-10-05T13:20:10.375Z,996.24
2022-10-05T13:21:10.361Z,996.43
2022-10-05T13:22:10.351Z,996.34
2022-10-05T13:23:10.335Z,996.40
2022-10-05T13:24:10.323Z,996.46
2022-10-05T13:25:10.310Z,996.46
2022-10-05T13:26:10.663Z,996.46
2022-10-05T13:27:10.286Z,996.40
2022-10-05T13:29:10.260Z,996.38
2022-10-05T13:30:10.255Z,996.34
2022-10-05T13:31:10.298Z,996.33
2022-10-05T13:32:10.229Z,996.31
2022-10-05T13:33:10.209Z,996.31
2022-10-05T13:34:10.198Z,996.29
2022-10-05T13:35:11.659Z,996.28
2022-10-05T13:36:10.489Z,996.27
2022-10-05T13:37:10.158Z,996.25
2022-10-05T13:38:10.148Z,996.15
2022-10-05T13:40:10.122Z,996.22
2022-10-05T13:41:10.112Z,996.27
2022-10-05T13:42:10.095Z,996.18
2022-10-05T13:43:10.081Z,996.21